createdAt,value
2023-02-19T00:01:25.056Z,101667.81
2023-02-19T00:03:55.582Z,101667.69
2023-02-19T00:06:23.009Z,101670.31
2023-02-19T00:08:49.509Z,101690.22
2023-02-19T00:11:17.556Z,101675.44
2023-02-19T00:13:45.174Z,101677.38
2023-02-19T00:16:19.367Z,101674.38
2023-02-19T00:18:46.238Z,101673.53
2023-02-19T00:21:13.237Z,101668.28
2023-02-19T00:23:39.550Z,101672.22
2023-02-19T00:26:18.611Z,101669.50
2023-02-19T00:28:45.710Z,101671.16
2023-02-19T00:31:14.986Z,101677.72
2023-02-19T00:33:41.348Z,101672.13
2023-02-19T00:36:07.796Z,101669.41
2023-02-19T00:38:38.045Z,101679.16
2023-02-19T00:41:18.908Z,101671.03
2023-02-19T00:43:49.329Z,101665.81
2023-02-19T00:46:16.874Z,101668.41
2023-02-19T00:48:43.215Z,101665.25
2023-02-19T00:51:10.189Z,101666.19
2023-02-19T00:53:36.709Z,101667.72
2023-02-19T00:56:03.256Z,101677.25
2023-02-19T00:58:29.897Z,101672.13
2023-02-19T01:00:56.192Z,101674.63
2023-02-19T01:03:22.662Z,101680.09
2023-02-19T01:05:52.295Z,101677.16
2023-02-19T01:08:18.558Z,101673.56
2023-02-19T01:10:44.904Z,101678.44
2023-02-19T01:13:11.225Z,101676.31
2023-02-19T01:15:37.736Z,101679.06
2023-02-19T01:18:04.142Z,101682.00
2023-02-19T01:20:30.488Z,101679.66
2023-02-19T01:22:56.781Z,101686.44
2023-02-19T01:25:23.096Z,101677.75
2023-02-19T01:27:49.487Z,101688.34
2023-02-19T01:30:15.901Z,101690.84
2023-02-19T01:32:42.232Z,101702.38
2023-02-19T01:35:08.572Z,101691.31
2023-02-19T01:37:34.833Z,101699.03
2023-02-19T01:40:01.067Z,101691.66
2023-02-19T01:42:27.390Z,101692.03
2023-02-19T01:45:15.901Z,101704.88
2023-02-19T01:47:42.235Z,101694.41
2023-02-19T01:50:08.624Z,101691.56
2023-02-19T01:52:36.370Z,101694.88
2023-02-19T01:55:04.580Z,101701.66
2023-02-19T01:57:33.933Z,101699.53
2023-02-19T02:00:03.785Z,101700.94
2023-02-19T02:02:30.100Z,101701.91
2023-02-19T02:04:58.055Z,101699.53
2023-02-19T02:07:42.825Z,101706.34
2023-02-19T02:10:21.142Z,101698.00
2023-02-19T02:12:47.988Z,101708.34
2023-02-19T02:15:14.856Z,101702.41
2023-02-19T02:17:51.542Z,101701.91
2023-02-19T02:20:32.414Z,101710.81
2023-02-19T02:23:07.765Z,101712.16
2023-02-19T02:25:43.294Z,101709.06
2023-02-19T02:28:28.606Z,101698.56
2023-02-19T02:30:57.411Z,101706.09
2023-02-19T02:33:23.729Z,101700.84
2023-02-19T02:35:56.501Z,101707.63
2023-02-19T02:38:25.410Z,101707.75
2023-02-19T02:40:52.126Z,101701.91
2023-02-19T02:43:18.470Z,101703.91
2023-02-19T02:45:44.817Z,101705.38
2023-02-19T02:48:17.753Z,101708.00
2023-02-19T02:50:50.137Z,101709.03
2023-02-19T02:53:38.999Z,101707.25
2023-02-19T02:56:05.598Z,101710.72
2023-02-19T02:58:32.381Z,101719.41
2023-02-19T03:01:38.586Z,101726.91
2023-02-19T03:04:07.622Z,101722.38
2023-02-19T03:06:35.867Z,101724.66
2023-02-19T03:09:07.768Z,101724.16
2023-02-19T03:11:54.740Z,101729.88
2023-02-19T03:14:47.611Z,101734.91
2023-02-19T03:17:37.432Z,101731.56
2023-02-19T03:20:05.497Z,101741.06
2023-02-19T03:22:34.244Z,101745.50
2023-02-19T03:25:22.773Z,101741.78
2023-02-19T03:27:49.437Z,101743.69
2023-02-19T03:30:18.450Z,101748.94
2023-02-19T03:33:02.809Z,101750.63
2023-02-19T03:35:31.869Z,101752.97
2023-02-19T03:38:04.423Z,101751.19
2023-02-19T03:40:31.420Z,101757.41
2023-02-19T03:43:12.464Z,101758.47
2023-02-19T03:45:45.908Z,101755.25
2023-02-19T03:48:18.755Z,101758.81
2023-02-19T03:50:58.484Z,101757.88
2023-02-19T03:53:53.982Z,101767.25
2023-02-19T03:56:40.498Z,101767.88
2023-02-19T03:59:24.092Z,101766.19
2023-02-19T04:01:50.300Z,101767.16
2023-02-19T04:04:38.029Z,101773.47
2023-02-19T04:07:04.617Z,101767.97
2023-02-19T04:09:38.719Z,101778.72
2023-02-19T04:12:06.349Z,101783.94
2023-02-19T04:14:52.928Z,101789.19
2023-02-19T04:17:25.286Z,101787.75
2023-02-19T04:19:53.071Z,101790.47
2023-02-19T04:22:20.139Z,101795.97
2023-02-19T04:24:51.229Z,101801.09
2023-02-19T04:27:17.975Z,101795.88
2023-02-19T04:29:44.316Z,101798.22
2023-02-19T04:32:11.228Z,101808.09
2023-02-19T04:34:37.664Z,101805.25
2023-02-19T04:37:04.074Z,101808.47
2023-02-19T04:39:30.358Z,101810.84
2023-02-19T04:41:56.676Z,101817.03
2023-02-19T04:44:22.970Z,101817.53
2023-02-19T04:46:49.234Z,101824.88
2023-02-19T04:49:15.717Z,101829.19
2023-02-19T04:51:42.051Z,101837.16
2023-02-19T04:54:08.416Z,101842.28
2023-02-19T04:56:34.715Z,101831.91
2023-02-19T04:59:01.075Z,101848.34
2023-02-19T05:01:27.392Z,101849.91
2023-02-19T05:03:53.716Z,101859.66
2023-02-19T05:06:20.108Z,101855.50
2023-02-19T05:08:46.438Z,101865.00
2023-02-19T05:11:13.468Z,101862.28
2023-02-19T05:13:40.295Z,101865.00
2023-02-19T05:16:08.143Z,101868.09
2023-02-19T05:18:34.758Z,101872.16
2023-02-19T05:21:01.436Z,101874.88
2023-02-19T05:23:28.184Z,101874.44
2023-02-19T05:25:54.494Z,101867.88
2023-02-19T05:28:21.086Z,101877.38
2023-02-19T05:30:51.569Z,101870.13
2023-02-19T05:33:19.674Z,101877.38
2023-02-19T05:35:47.587Z,101874.66
2023-02-19T05:38:14.495Z,101885.34
2023-02-19T05:40:41.005Z,101885.75
2023-02-19T05:43:07.574Z,101882.50
2023-02-19T05:45:34.284Z,101879.16
2023-02-19T05:48:00.732Z,101885.25
2023-02-19T05:50:27.292Z,101883.47
2023-02-19T05:52:53.969Z,101884.41
2023-02-19T05:55:20.290Z,101880.00
2023-02-19T05:57:47.848Z,101893.81
2023-02-19T06:00:15.670Z,101896.56
2023-02-19T06:02:42.259Z,101893.09
2023-02-19T06:05:09.096Z,101894.53
2023-02-19T06:07:35.468Z,101900.03
2023-02-19T06:10:01.975Z,101906.31
2023-02-19T06:12:28.233Z,101914.78
2023-02-19T06:14:54.529Z,101914.06
2023-02-19T06:17:20.807Z,101919.41
2023-02-19T06:19:47.115Z,101921.09
2023-02-19T06:22:14.501Z,101917.84
2023-02-19T06:24:40.788Z,101917.94
2023-02-19T06:27:07.680Z,101929.03
2023-02-19T06:29:34.054Z,101930.84
2023-02-19T06:32:00.682Z,101950.34
2023-02-19T06:34:27.113Z,101962.63
2023-02-19T06:36:54.291Z,101953.91
2023-02-19T06:39:20.716Z,101957.25
2023-02-19T06:41:47.486Z,101969.75
2023-02-19T06:44:14.053Z,101963.75
2023-02-19T06:46:40.499Z,101968.06
2023-02-19T06:49:06.867Z,101963.75
2023-02-19T06:51:33.323Z,101966.16
2023-02-19T06:54:02.220Z,101971.41
2023-02-19T06:56:29.849Z,101964.25
2023-02-19T06:58:58.070Z,101970.69
2023-02-19T07:01:24.580Z,101981.88
2023-02-19T07:03:52.436Z,101983.88
2023-02-19T07:06:22.919Z,101985.22
2023-02-19T07:08:49.792Z,101984.69
2023-02-19T07:11:18.731Z,101997.41
2023-02-19T07:13:45.354Z,101995.41
2023-02-19T07:16:12.306Z,102006.81
2023-02-19T07:18:39.175Z,102004.94
2023-02-19T07:21:10.402Z,102018.97
2023-02-19T07:23:51.103Z,102014.56
2023-02-19T07:26:19.273Z,102018.88
2023-02-19T07:28:46.719Z,102026.22
2023-02-19T07:31:14.143Z,102040.03
2023-02-19T07:33:45.843Z,102038.03
2023-02-19T07:36:13.551Z,102041.72
2023-02-19T07:38:40.003Z,102053.03
2023-02-19T07:41:06.842Z,102055.84
2023-02-19T07:43:34.522Z,102059.63
2023-02-19T07:46:04.754Z,102062.59
2023-02-19T07:48:31.282Z,102064.13
2023-02-19T07:51:01.812Z,102079.84
2023-02-19T07:53:28.260Z,102063.94
2023-02-19T07:55:58.691Z,102070.44
2023-02-19T07:58:25.000Z,102069.72
2023-02-19T08:00:53.809Z,102076.41
2023-02-19T08:03:20.458Z,102075.25
2023-02-19T08:05:47.878Z,102082.16
2023-02-19T08:08:15.084Z,102089.59
2023-02-19T08:11:00.329Z,102087.59
2023-02-19T08:13:30.896Z,102082.13
2023-02-19T08:16:18.307Z,102080.97
2023-02-19T08:18:49.887Z,102087.25
2023-02-19T08:21:20.555Z,102099.09
2023-02-19T08:23:48.378Z,102099.81
2023-02-19T08:26:16.691Z,102099.38
2023-02-19T08:28:43.444Z,102098.56
2023-02-19T08:31:11.561Z,102101.03
2023-02-19T08:33:38.180Z,102101.91
2023-02-19T08:36:06.028Z,102103.06
2023-02-19T08:38:33.984Z,102112.47
2023-02-19T08:41:00.257Z,102114.56
2023-02-19T08:43:26.689Z,102124.13
2023-02-19T08:45:53.885Z,102126.63
2023-02-19T08:48:20.296Z,102127.47
2023-02-19T08:50:52.897Z,102127.47
2023-02-19T08:53:19.165Z,102148.00
2023-02-19T08:55:45.458Z,102151.34
2023-02-19T08:58:11.864Z,102152.78
2023-02-19T09:00:38.126Z,102154.25
2023-02-19T09:03:06.846Z,102145.47
2023-02-19T09:05:33.547Z,102143.34
2023-02-19T09:07:59.774Z,102134.34
2023-02-19T09:10:26.107Z,102143.78
2023-02-19T09:12:52.534Z,102139.16
2023-02-19T09:15:19.096Z,102143.22
2023-02-19T09:17:45.317Z,102141.44
2023-02-19T09:20:14.368Z,102152.25
2023-02-19T09:22:48.785Z,102155.94
2023-02-19T09:25:16.591Z,102165.16
2023-02-19T09:27:45.170Z,102175.19
2023-02-19T09:30:11.658Z,102174.47
2023-02-19T09:32:38.196Z,102186.44
2023-02-19T09:35:06.625Z,102186.84
2023-02-19T09:37:34.171Z,102189.03
2023-02-19T09:40:00.992Z,102196.72
2023-02-19T09:42:29.859Z,102191.75
2023-02-19T09:44:57.784Z,102207.47
2023-02-19T09:47:25.675Z,102217.97
2023-02-19T09:49:54.173Z,102226.22
2023-02-19T09:52:29.589Z,102223.00
2023-02-19T09:54:59.280Z,102228.13
2023-02-19T09:57:27.978Z,102232.44
2023-02-19T10:00:14.059Z,102235.88
2023-02-19T10:02:40.377Z,102244.38
2023-02-19T10:05:12.451Z,102254.84
2023-02-19T10:07:45.817Z,102258.31
2023-02-19T10:10:14.927Z,102257.22
2023-02-19T10:12:45.710Z,102269.19
2023-02-19T10:15:16.693Z,102272.31
2023-02-19T10:17:42.998Z,102269.88
2023-02-19T10:20:16.097Z,102274.91
2023-02-19T10:22:43.089Z,102277.63
2023-02-19T10:25:13.898Z,102278.47
2023-02-19T10:27:40.216Z,102279.31
2023-02-19T10:30:07.327Z,102275.00
2023-02-19T10:32:33.678Z,102282.66
2023-02-19T10:35:13.566Z,102296.00
2023-02-19T10:37:49.802Z,102298.31
2023-02-19T10:40:20.401Z,102306.19
2023-02-19T10:42:52.193Z,102303.75
2023-02-19T10:45:21.509Z,102306.81
2023-02-19T10:47:47.985Z,102321.00
2023-02-19T10:50:29.734Z,102328.03
2023-02-19T10:52:57.898Z,102319.44
2023-02-19T10:55:25.979Z,102319.19
2023-02-19T10:57:52.372Z,102315.34
2023-02-19T11:00:22.485Z,102320.34
2023-02-19T11:02:48.766Z,102321.06
2023-02-19T11:05:17.321Z,102320.22
2023-02-19T11:07:52.085Z,102312.88
2023-02-19T11:10:40.302Z,102303.97
2023-02-19T11:13:07.528Z,102298.81
2023-02-19T11:15:34.730Z,102287.69
2023-02-19T11:18:13.032Z,102293.06
2023-02-19T11:20:46.312Z,102295.69
2023-02-19T11:23:15.017Z,102299.25
2023-02-19T11:25:46.036Z,102301.22
2023-02-19T11:28:31.178Z,102299.81
2023-02-19T11:31:13.129Z,102294.25
2023-02-19T11:34:03.016Z,102298.22
2023-02-19T11:36:31.414Z,102305.63
2023-02-19T11:38:59.065Z,102298.94
2023-02-19T11:41:37.910Z,102308.25
2023-02-19T11:44:07.237Z,102309.75
2023-02-19T11:46:48.687Z,102317.94
2023-02-19T11:49:33.753Z,102313.72
2023-02-19T11:52:19.632Z,102319.59
2023-02-19T11:54:52.673Z,102319.50
2023-02-19T11:57:28.080Z,102328.91
2023-02-19T12:00:17.540Z,102325.84
2023-02-19T12:02:47.583Z,102328.19
2023-02-19T12:05:26.795Z,102324.31
2023-02-19T12:08:16.278Z,102318.88
2023-02-19T12:11:08.157Z,102319.81
2023-02-19T12:13:49.812Z,102329.56
2023-02-19T12:16:16.149Z,102329.09
2023-02-19T12:18:57.542Z,102321.53
2023-02-19T12:21:44.233Z,102320.41
2023-02-19T12:24:25.684Z,102327.78
2023-02-19T12:27:03.590Z,102334.53
2023-02-19T12:29:36.942Z,102331.50
2023-02-19T12:32:31.495Z,102328.56
2023-02-19T12:35:16.389Z,102331.47
2023-02-19T12:37:48.604Z,102332.31
2023-02-19T12:40:27.124Z,102327.41
2023-02-19T12:42:56.364Z,102326.13
2023-02-19T12:45:26.958Z,102330.56
2023-02-19T12:48:01.623Z,102340.31
2023-02-19T12:50:28.943Z,102343.25
2023-02-19T12:53:02.334Z,102348.56
2023-02-19T12:55:38.099Z,102344.28
2023-02-19T12:58:06.590Z,102347.31
2023-02-19T13:00:39.580Z,102356.78
2023-02-19T13:03:28.708Z,102353.22
2023-02-19T13:06:01.721Z,102350.66
2023-02-19T13:08:27.977Z,102359.50
2023-02-19T13:11:01.350Z,102361.28
2023-02-19T13:13:38.468Z,102370.28
2023-02-19T13:16:10.231Z,102367.06
2023-02-19T13:18:42.593Z,102375.44
2023-02-19T13:21:08.963Z,102378.06
2023-02-19T13:23:55.119Z,102389.91
2023-02-19T13:26:31.488Z,102386.88
2023-02-19T13:29:09.724Z,102393.50
2023-02-19T13:31:48.461Z,102395.28
2023-02-19T13:34:21.021Z,102398.84
2023-02-19T13:36:48.779Z,102394.53
2023-02-19T13:41:51.701Z,102407.94
2023-02-19T13:44:20.436Z,102408.78
2023-02-19T13:46:47.788Z,102409.53
2023-02-19T13:49:22.988Z,102415.50
2023-02-19T13:51:56.603Z,102415.19
2023-02-19T13:54:27.887Z,102413.31
2023-02-19T13:57:14.120Z,102415.81
2023-02-19T13:59:40.863Z,102420.03
2023-02-19T14:02:12.324Z,102422.34
2023-02-19T14:04:44.740Z,102419.63
2023-02-19T14:07:10.974Z,102426.41
2023-02-19T14:09:40.529Z,102431.56
2023-02-19T14:12:10.146Z,102428.94
2023-02-19T14:14:37.673Z,102428.31
2023-02-19T14:17:10.311Z,102436.09
2023-02-19T14:19:42.891Z,102436.19
2023-02-19T14:22:28.479Z,102441.22
2023-02-19T14:24:55.522Z,102446.25
2023-02-19T14:27:22.011Z,102451.41
2023-02-19T14:29:48.587Z,102449.94
2023-02-19T14:32:19.103Z,102454.94
2023-02-19T14:34:45.923Z,102447.41
2023-02-19T14:37:20.929Z,102440.50
2023-02-19T14:39:47.433Z,102435.53
2023-02-19T14:42:27.606Z,102432.09
2023-02-19T14:44:58.228Z,102425.06
2023-02-19T14:47:26.884Z,102422.03
2023-02-19T14:50:03.659Z,102422.44
2023-02-19T14:52:41.202Z,102417.28
2023-02-19T14:55:08.928Z,102408.69
2023-02-19T14:57:48.221Z,102417.47
2023-02-19T15:00:19.318Z,102408.69
2023-02-19T15:02:48.921Z,102400.38
2023-02-19T15:05:28.004Z,102395.38
2023-02-19T15:07:59.654Z,102393.81
2023-02-19T15:10:28.440Z,102390.41
2023-02-19T15:12:59.041Z,102386.03
2023-02-19T15:15:30.275Z,102394.09
2023-02-19T15:17:59.326Z,102399.31
2023-02-19T15:20:31.921Z,102388.72
2023-02-19T15:23:03.534Z,102391.75
2023-02-19T15:25:33.873Z,102401.16
2023-02-19T15:28:19.120Z,102414.44
2023-02-19T15:30:46.216Z,102421.56
2023-02-19T15:33:18.063Z,102419.34
2023-02-19T15:35:51.918Z,102421.06
2023-02-19T15:38:18.643Z,102431.72
2023-02-19T15:40:48.476Z,102428.16
2023-02-19T15:43:35.108Z,102449.13
2023-02-19T15:46:04.292Z,102456.03
2023-02-19T15:48:36.395Z,102462.41
2023-02-19T15:51:09.122Z,102462.53
2023-02-19T15:53:38.173Z,102456.66
2023-02-19T15:56:28.206Z,102458.53
2023-02-19T15:59:04.357Z,102462.38
2023-02-19T16:01:32.383Z,102456.47
2023-02-19T16:03:58.849Z,102455.66
2023-02-19T16:06:26.261Z,102461.94
2023-02-19T16:08:52.472Z,102466.72
2023-02-19T16:11:24.698Z,102466.72
2023-02-19T16:13:51.799Z,102469.44
2023-02-19T16:16:18.176Z,102463.31
2023-02-19T16:18:49.018Z,102471.00
2023-02-19T16:21:16.776Z,102478.75
2023-02-19T16:23:43.907Z,102489.22
2023-02-19T16:26:10.298Z,102500.53
2023-02-19T16:28:38.145Z,102509.41
2023-02-19T16:31:06.830Z,102521.00
2023-02-19T16:33:43.581Z,102511.66
2023-02-19T16:36:28.822Z,102512.69
2023-02-19T16:39:15.072Z,102513.63
2023-02-19T16:41:47.381Z,102520.44
2023-02-19T16:44:25.876Z,102520.63
2023-02-19T16:46:53.994Z,102525.78
2023-02-19T16:49:21.061Z,102522.00
2023-02-19T16:51:47.458Z,102521.25
2023-02-19T16:54:14.129Z,102511.13
2023-02-19T16:56:40.426Z,102517.31
2023-02-19T16:59:07.949Z,102516.56
2023-02-19T17:01:35.082Z,102517.31
2023-02-19T17:04:04.007Z,102522.78
2023-02-19T17:06:32.690Z,102535.97
2023-02-19T17:08:59.034Z,102545.56
2023-02-19T17:11:25.271Z,102540.63
2023-02-19T17:13:51.724Z,102533.13
2023-02-19T17:16:18.091Z,102538.84
2023-02-19T17:18:44.460Z,102544.34
2023-02-19T17:21:14.906Z,102548.00
2023-02-19T17:23:41.276Z,102543.41
2023-02-19T17:26:09.704Z,102541.41
2023-02-19T17:28:36.055Z,102541.34
2023-02-19T17:31:02.440Z,102547.13
2023-02-19T17:33:28.726Z,102549.19
2023-02-19T17:35:55.012Z,102550.59
2023-02-19T17:38:21.415Z,102548.31
2023-02-19T17:40:47.666Z,102553.31
2023-02-19T17:43:14.662Z,102548.44
2023-02-19T17:45:41.078Z,102545.16
2023-02-19T17:48:09.494Z,102552.13
2023-02-19T17:50:35.867Z,102549.34
2023-02-19T17:53:02.113Z,102549.03
2023-02-19T17:55:28.504Z,102550.63
2023-02-19T17:57:54.844Z,102548.13
2023-02-19T18:00:25.670Z,102557.47
2023-02-19T18:02:52.133Z,102562.19
2023-02-19T18:05:18.873Z,102565.91
2023-02-19T18:07:46.107Z,102573.81
2023-02-19T18:10:13.198Z,102580.66
2023-02-19T18:12:39.990Z,102582.41
2023-02-19T18:15:07.488Z,102573.41
2023-02-19T18:17:33.914Z,102572.56
2023-02-19T18:20:00.391Z,102579.56
2023-02-19T18:22:26.679Z,102568.44
2023-02-19T18:24:53.525Z,102580.50
2023-02-19T18:27:20.400Z,102572.25
2023-02-19T18:29:50.665Z,102570.81
2023-02-19T18:32:16.983Z,102572.16
2023-02-19T18:34:43.373Z,102572.06
2023-02-19T18:37:09.612Z,102568.47
2023-02-19T18:39:35.885Z,102566.59
2023-02-19T18:42:02.951Z,102567.72
2023-02-19T18:44:29.267Z,102577.28
2023-02-19T18:46:55.578Z,102570.31
2023-02-19T18:49:22.201Z,102563.59
2023-02-19T18:51:48.488Z,102566.75
2023-02-19T18:54:14.864Z,102555.63
2023-02-19T18:56:42.333Z,102564.41
2023-02-19T18:59:08.797Z,102555.81
2023-02-19T19:01:35.201Z,102563.31
2023-02-19T19:04:01.629Z,102573.75
2023-02-19T19:06:28.107Z,102575.00
2023-02-19T19:08:54.390Z,102575.28
2023-02-19T19:11:22.593Z,102588.00
2023-02-19T19:13:48.872Z,102584.13
2023-02-19T19:16:15.211Z,102581.25
2023-02-19T19:18:41.711Z,102572.50
2023-02-19T19:21:09.644Z,102572.06
2023-02-19T19:23:36.496Z,102579.31
2023-02-19T19:26:06.101Z,102582.00
2023-02-19T19:28:32.457Z,102577.19
2023-02-19T19:30:58.994Z,102576.69
2023-02-19T19:33:28.162Z,102575.06
2023-02-19T19:35:54.514Z,102570.25
2023-02-19T19:38:20.788Z,102565.97
2023-02-19T19:40:47.213Z,102575.72
2023-02-19T19:43:13.532Z,102587.69
2023-02-19T19:45:39.825Z,102589.53
2023-02-19T19:48:09.523Z,102591.63
2023-02-19T19:50:35.855Z,102595.16
2023-02-19T19:53:02.488Z,102599.78
2023-02-19T19:55:30.062Z,102603.31
2023-02-19T19:57:56.524Z,102605.00
2023-02-19T20:00:24.641Z,102599.16
2023-02-19T20:02:51.454Z,102599.41
2023-02-19T20:05:18.126Z,102604.94
2023-02-19T20:07:45.268Z,102610.78
2023-02-19T20:10:12.919Z,102601.19
2023-02-19T20:12:40.347Z,102604.53
2023-02-19T20:15:07.231Z,102609.16
2023-02-19T20:17:33.641Z,102601.88
2023-02-19T20:19:59.983Z,102598.66
2023-02-19T20:22:26.314Z,102598.50
2023-02-19T20:24:54.093Z,102594.44
2023-02-19T20:27:21.459Z,102594.66
2023-02-19T20:29:51.105Z,102588.75
2023-02-19T20:32:21.802Z,102587.53
2023-02-19T20:34:48.351Z,102583.31
2023-02-19T20:37:14.722Z,102582.69
2023-02-19T20:39:41.158Z,102582.06
2023-02-19T20:42:08.395Z,102571.81
2023-02-19T20:44:34.879Z,102583.31
2023-02-19T20:47:01.957Z,102594.63
2023-02-19T20:49:29.908Z,102602.69
2023-02-19T20:52:00.865Z,102608.94
2023-02-19T20:54:31.829Z,102605.78
2023-02-19T20:57:01.664Z,102604.03
2023-02-19T20:59:40.988Z,102614.09
2023-02-19T21:02:09.264Z,102604.09
2023-02-19T21:04:37.252Z,102601.59
2023-02-19T21:07:03.549Z,102596.38
2023-02-19T21:09:29.880Z,102599.94
2023-02-19T21:11:56.286Z,102592.84
2023-02-19T21:14:22.580Z,102590.41
2023-02-19T21:16:48.954Z,102580.44
2023-02-19T21:19:15.504Z,102575.59
2023-02-19T21:21:41.893Z,102578.19
2023-02-19T21:24:09.402Z,102575.72
2023-02-19T21:26:37.200Z,102574.97
2023-02-19T21:29:04.050Z,102573.41
2023-02-19T21:31:40.677Z,102585.38
2023-02-19T21:34:08.004Z,102578.69
2023-02-19T21:36:34.449Z,102572.72
2023-02-19T21:39:01.097Z,102578.06
2023-02-19T21:41:28.012Z,102578.44
2023-02-19T21:43:55.224Z,102577.78
2023-02-19T21:46:21.724Z,102569.03
2023-02-19T21:48:48.675Z,102569.91
2023-02-19T21:51:15.154Z,102572.78
2023-02-19T21:53:41.504Z,102578.69
2023-02-19T21:56:07.943Z,102584.66
2023-02-19T21:58:34.243Z,102567.25
2023-02-19T22:01:00.753Z,102577.66
2023-02-19T22:03:27.069Z,102575.13
2023-02-19T22:05:54.542Z,102575.25
2023-02-19T22:08:21.343Z,102575.88
2023-02-19T22:10:47.609Z,102571.56
2023-02-19T22:13:14.012Z,102572.34
2023-02-19T22:15:40.316Z,102565.53
2023-02-19T22:18:06.577Z,102569.84
2023-02-19T22:20:34.939Z,102576.06
2023-02-19T22:23:01.268Z,102583.81
2023-02-19T22:25:27.560Z,102587.97
2023-02-19T22:27:53.912Z,102579.59
2023-02-19T22:30:20.489Z,102574.25
2023-02-19T22:32:46.847Z,102579.25
2023-02-19T22:35:15.446Z,102581.22
2023-02-19T22:37:42.120Z,102576.66
2023-02-19T22:40:08.506Z,102569.84
2023-02-19T22:42:36.032Z,102566.44
2023-02-19T22:45:02.734Z,102558.91
2023-02-19T22:47:29.024Z,102559.00
2023-02-19T22:49:55.299Z,102558.91
2023-02-19T22:52:21.697Z,102560.03
2023-02-19T22:54:48.064Z,102562.56
2023-02-19T22:57:14.354Z,102561.75
2023-02-19T22:59:40.632Z,102554.94
2023-02-19T23:02:06.976Z,102553.94
2023-02-19T23:04:33.295Z,102552.44
2023-02-19T23:06:59.640Z,102555.88
2023-02-19T23:09:27.281Z,102551.53
2023-02-19T23:12:00.301Z,102548.16
2023-02-19T23:14:26.601Z,102535.16
2023-02-19T23:16:52.916Z,102542.88
2023-02-19T23:19:19.243Z,102537.59
2023-02-19T23:21:45.651Z,102522.16
2023-02-19T23:24:12.482Z,102523.59
2023-02-19T23:26:57.105Z,102517.44
2023-02-19T23:29:25.631Z,102514.66
2023-02-19T23:31:52.118Z,102513.00
2023-02-19T23:34:19.600Z,102510.25
2023-02-19T23:36:47.145Z,102506.44
2023-02-19T23:39:15.089Z,102518.25
2023-02-19T23:41:48.685Z,102528.50
2023-02-19T23:44:15.259Z,102524.84
2023-02-19T23:46:41.553Z,102519.75
2023-02-19T23:49:07.920Z,102519.75
2023-02-19T23:51:34.341Z,102522.06
2023-02-19T23:54:00.611Z,102523.72
2023-02-19T23:56:27.453Z,102519.09
2023-02-19T23:58:53.761Z,102516.78
